Time;durP1;ratioP1;P1;durP2;ratioP2;P2;SDS_P1;SDS_P2;PMS_P1;PMS_P2;Temp;Humidity;BMP_temperature;BMP_pressure;BME280_temperature;BME280_humidity;BME280_pressure;Samples;Min_cycle;Max_cycle;Signal;HPM_P1;HPM_P2
2021/04/05 00:00:41;;;;;;;15.98;11.55;;;;;;;3.19;100.00;96168.72;5033184;28;20065;-52
2021/04/05 00:03:10;;;;;;;16.95;11.52;;;;;;;3.01;100.00;96168.22;4996712;28;20480;-54
2021/04/05 00:05:38;;;;;;;14.50;10.77;;;;;;;3.11;100.00;96159.78;5026440;28;20084;-52
2021/04/05 00:08:07;;;;;;;14.25;11.30;;;;;;;3.04;100.00;96154.19;5000403;28;21906;-52
2021/04/05 00:10:37;;;;;;;18.23;11.88;;;;;;;2.76;100.00;96144.81;5035735;28;20073;-53
2021/04/05 00:13:08;;;;;;;19.63;11.88;;;;;;;2.77;100.00;96138.66;5008097;28;20057;-46
2021/04/05 00:15:36;;;;;;;15.23;10.88;;;;;;;2.71;100.00;96137.31;5033919;28;20076;-53
2021/04/05 00:18:03;;;;;;;16.58;11.07;;;;;;;2.78;100.00;96137.72;5029684;28;20079;-50
2021/04/05 00:20:36;;;;;;;13.88;10.80;;;;;;;2.59;100.00;96141.59;4999064;28;20056;-51
2021/04/05 00:23:04;;;;;;;19.58;11.40;;;;;;;2.79;100.00;96136.81;5035682;28;20072;-54
2021/04/05 00:25:32;;;;;;;13.32;10.48;;;;;;;2.55;100.00;96147.94;5007759;28;20056;-54
2021/04/05 00:28:01;;;;;;;15.13;10.43;;;;;;;2.54;100.00;96140.22;5030242;28;20462;-55
2021/04/05 00:30:30;;;;;;;22.80;13.50;;;;;;;2.67;100.00;96132.41;5008630;28;20072;-54
2021/04/05 00:33:15;;;;;;;20.55;14.10;;;;;;;2.65;100.00;96116.06;5028839;28;20033;-56
2021/04/05 00:35:42;;;;;;;21.20;12.95;;;;;;;2.65;100.00;96114.31;5000909;28;20092;-53
2021/04/05 00:38:12;;;;;;;25.02;15.75;;;;;;;2.61;100.00;96112.84;5026399;28;20552;-51
2021/04/05 00:40:44;;;;;;;26.83;17.05;;;;;;;2.50;100.00;96113.56;5000139;28;20111;-54
2021/04/05 00:43:13;;;;;;;19.02;13.23;;;;;;;2.37;100.00;96108.38;5025447;28;20079;-52
2021/04/05 00:45:41;;;;;;;14.93;11.60;;;;;;;2.36;100.00;96091.06;5002314;28;20503;-51
2021/04/05 00:48:11;;;;;;;16.48;10.65;;;;;;;2.47;100.00;96092.13;5025021;28;20061;-54
2021/04/05 00:50:45;;;;;;;15.05;10.30;;;;;;;2.36;100.00;96098.06;5001781;28;20238;-52
2021/04/05 00:53:15;;;;;;;15.52;10.50;;;;;;;2.19;100.00;96090.56;5027039;28;20250;-52
2021/04/05 00:55:45;;;;;;;13.30;10.18;;;;;;;2.25;100.00;96077.97;4999642;28;20065;-47
2021/04/05 00:58:14;;;;;;;11.05;9.18;;;;;;;2.36;100.00;96079.84;5030343;28;20061;-51
2021/04/05 01:00:44;;;;;;;16.50;9.93;;;;;;;2.27;100.00;96083.06;5001793;28;20160;-53
2021/04/05 01:03:12;;;;;;;;;;;;;;;2.18;100.00;96079.31;5027618;28;20356;-53
2021/04/05 01:05:40;;;;;;;14.02;9.07;;;;;;;2.09;100.00;96077.31;4998676;28;19957;-49
2021/04/05 01:08:09;;;;;;;15.02;9.45;;;;;;;2.12;100.00;96077.13;5016782;28;20092;-49
2021/04/05 01:10:37;;;;;;;12.88;8.65;;;;;;;2.22;100.00;96072.16;5004083;28;20065;-48
2021/04/05 01:13:07;;;;;;;11.38;8.40;;;;;;;2.20;100.00;96063.59;5013095;28;20081;-50
2021/04/05 01:15:34;;;;;;;15.15;9.20;;;;;;;2.45;100.00;96066.22;4998579;28;20041;-49
2021/04/05 01:18:04;;;;;;;10.60;8.23;;;;;;;2.35;100.00;96075.59;5031338;28;20072;-48
2021/04/05 01:20:32;;;;;;;13.30;9.32;;;;;;;2.29;100.00;96063.81;5029716;28;20092;-49
2021/04/05 01:23:02;;;;;;;11.98;9.02;;;;;;;2.20;100.00;96059.22;4998778;28;20065;-47
2021/04/05 01:25:30;;;;;;;13.20;9.02;;;;;;;2.16;100.00;96060.38;5029360;28;20061;-49
2021/04/05 01:27:58;;;;;;;12.20;8.98;;;;;;;2.25;100.00;96056.34;5006523;28;20065;-48
2021/04/05 01:30:31;;;;;;;12.13;8.90;;;;;;;2.21;100.00;96054.88;5021963;28;20069;-52
2021/04/05 01:33:04;;;;;;;12.02;8.35;;;;;;;2.16;100.00;96047.38;5006213;28;21666;-48
2021/04/05 01:35:38;;;;;;;14.10;9.07;;;;;;;2.02;100.00;96040.50;5027258;28;20080;-47
2021/04/05 01:38:07;;;;;;;14.48;9.10;;;;;;;2.13;100.00;96035.41;4996995;28;20263;-47
2021/04/05 01:40:36;;;;;;;12.38;9.05;;;;;;;2.23;100.00;96026.97;5027159;28;20069;-50
2021/04/05 01:43:04;;;;;;;11.82;8.55;;;;;;;2.15;100.00;96022.31;4982512;28;20526;-48
2021/04/05 01:45:32;;;;;;;12.80;9.20;;;;;;;2.08;100.00;96021.88;5024988;28;20061;-48
2021/04/05 01:48:00;;;;;;;11.55;8.00;;;;;;;1.79;100.00;96028.19;5005881;28;20088;-50
2021/04/05 01:50:28;;;;;;;14.65;8.93;;;;;;;1.60;100.00;96034.59;5025459;28;20065;-48
2021/04/05 01:52:55;;;;;;;11.02;8.45;;;;;;;1.56;100.00;96029.72;5000163;28;20076;-49
2021/04/05 01:55:25;;;;;;;13.95;8.50;;;;;;;1.69;100.00;96021.94;5023550;28;20084;-48
2021/04/05 01:57:52;;;;;;;11.63;8.55;;;;;;;1.81;100.00;96023.72;4998879;28;20073;-50
2021/04/05 02:00:24;;;;;;;11.23;8.43;;;;;;;1.63;100.00;96017.97;5023654;28;20060;-48
2021/04/05 02:02:51;;;;;;;11.18;8.82;;;;;;;1.95;100.00;96012.41;4997612;28;20503;-49
2021/04/05 02:05:21;;;;;;;11.50;8.50;;;;;;;2.07;100.00;96007.22;5028049;28;20141;-48
2021/04/05 02:07:50;;;;;;;16.45;8.60;;;;;;;1.96;100.00;95999.31;4985810;28;20076;-51
2021/04/05 02:10:21;;;;;;;10.50;7.93;;;;;;;1.90;100.00;95994.53;5018233;28;20121;-53
2021/04/05 02:12:50;;;;;;;11.98;7.78;;;;;;;2.00;100.00;95992.97;4986345;28;20065;-48
2021/04/05 02:15:18;;;;;;;12.88;8.60;;;;;;;1.80;100.00;95985.69;5032820;28;20079;-48
2021/04/05 02:17:47;;;;;;;12.05;8.23;;;;;;;1.58;100.00;95981.91;5025456;28;20042;-50
2021/04/05 02:20:16;;;;;;;11.40;8.23;;;;;;;1.59;100.00;95980.16;5006953;28;20065;-52
2021/04/05 02:22:45;;;;;;;12.73;9.00;;;;;;;1.47;100.00;95975.75;5026788;28;20064;-54
2021/04/05 02:25:15;;;;;;;9.75;8.13;;;;;;;1.56;100.00;95969.94;4996558;28;20057;-55
2021/04/05 02:27:43;;;;;;;15.18;8.02;;;;;;;1.59;100.00;95965.38;5030003;28;20380;-48
2021/04/05 02:30:22;;;;;;;9.48;7.40;;;;;;;1.30;100.00;95975.06;4998623;28;20072;-47
2021/04/05 02:32:52;;;;;;;11.15;7.85;;;;;;;1.13;100.00;95970.16;5023460;28;20444;-56
2021/04/05 02:35:22;;;;;;;9.82;8.15;;;;;;;1.40;100.00;95968.34;5012794;28;20546;-53
2021/04/05 02:37:49;;;;;;;8.57;7.40;;;;;;;1.47;100.00;95966.19;5017725;28;20072;-53
2021/04/05 02:40:18;;;;;;;12.38;7.95;;;;;;;1.42;100.00;95963.06;4998121;28;20559;-53
2021/04/05 02:42:46;;;;;;;9.55;8.35;;;;;;;1.28;100.00;95974.34;5033686;28;20451;-50
2021/04/05 02:45:17;;;;;;;8.95;7.63;;;;;;;1.30;100.00;95980.28;5001243;28;20045;-55
2021/04/05 02:47:45;;;;;;;11.57;8.15;;;;;;;1.29;100.00;95972.59;5026789;28;20528;-54
2021/04/05 02:50:15;;;;;;;10.00;8.02;;;;;;;1.20;100.00;95963.63;5006335;28;20487;-53
2021/04/05 02:52:43;;;;;;;12.25;8.07;;;;;;;1.28;100.00;95968.34;5019788;28;20077;-50
2021/04/05 02:55:13;;;;;;;11.20;8.15;;;;;;;1.33;100.00;95956.69;5001806;28;20119;-51
2021/04/05 02:57:42;;;;;;;9.63;7.82;;;;;;;1.19;100.00;95942.00;5026570;28;20076;-51
2021/04/05 03:00:12;;;;;;;10.10;7.70;;;;;;;1.18;100.00;95939.53;5004116;28;20519;-54
2021/04/05 03:02:42;;;;;;;12.35;8.25;;;;;;;1.10;100.00;95949.56;5029771;28;20081;-49
2021/04/05 03:05:11;;;;;;;11.07;8.07;;;;;;;1.10;100.00;95940.03;5000549;28;21383;-56
2021/04/05 03:07:39;;;;;;;8.50;7.45;;;;;;;1.14;100.00;95927.69;5030517;28;20069;-52
2021/04/05 03:10:08;;;;;;;11.85;8.65;;;;;;;1.25;100.00;95920.03;5009163;28;20076;-53
2021/04/05 03:13:02;;;;;;;11.55;7.70;;;;;;;1.23;100.00;95914.06;5026004;28;20053;-50
2021/04/05 03:15:30;;;;;;;10.23;7.60;;;;;;;1.37;100.00;95903.59;4994143;28;20520;-52
2021/04/05 03:18:00;;;;;;;11.40;7.50;;;;;;;1.32;100.00;95894.47;5022261;28;20104;-51
2021/04/05 03:20:29;;;;;;;10.70;8.10;;;;;;;1.32;100.00;95892.69;4999665;28;20085;-55
2021/04/05 03:22:57;;;;;;;11.38;8.05;;;;;;;1.40;100.00;95887.00;5022021;28;20091;-49
2021/04/05 03:25:25;;;;;;;8.85;7.15;;;;;;;1.26;100.00;95881.88;5017000;28;20535;-54
2021/04/05 03:27:52;;;;;;;11.65;7.60;;;;;;;1.37;100.00;95885.41;4991074;28;20159;-53
2021/04/05 03:30:24;;;;;;;9.63;7.43;;;;;;;1.36;100.00;95878.56;5021334;28;20073;-49
2021/04/05 03:32:55;;;;;;;10.48;7.68;;;;;;;1.48;100.00;95866.53;4996867;28;20078;-50
2021/04/05 03:35:33;;;;;;;9.20;6.85;;;;;;;1.40;100.00;95866.22;5027113;28;20058;-51
2021/04/05 03:38:01;;;;;;;10.57;7.25;;;;;;;1.52;100.00;95867.16;4996075;28;20073;-55
2021/04/05 03:40:29;;;;;;;12.65;7.53;;;;;;;1.46;100.00;95859.78;5025902;28;20065;-47
2021/04/05 03:43:02;;;;;;;9.00;6.68;;;;;;;1.58;100.00;95853.72;4998687;28;20076;-50
2021/04/05 03:45:37;;;;;;;10.63;7.18;;;;;;;1.60;100.00;95844.06;5020566;28;20538;-53
2021/04/05 03:48:08;;;;;;;8.65;6.47;;;;;;;1.61;100.00;95846.56;4997481;28;20073;-51
2021/04/05 03:50:43;;;;;;;7.18;6.30;;;;;;;1.58;100.00;95839.00;5024633;28;20102;-54
2021/04/05 03:53:33;;;;;;;8.77;7.10;;;;;;;1.61;100.00;95840.53;4994667;28;20785;-55
2021/04/05 03:56:05;;;;;;;10.23;6.93;;;;;;;1.53;100.00;95841.06;5024214;28;20064;-53
2021/04/05 03:58:53;;;;;;;8.77;6.35;;;;;;;1.51;100.00;95832.53;5001978;28;20052;-53
2021/04/05 04:01:24;;;;;;;9.60;6.15;;;;;;;1.45;100.00;95835.56;5018650;28;20075;-50
2021/04/05 04:04:00;;;;;;;9.35;6.53;;;;;;;1.33;100.00;95828.59;4994502;28;20528;-50
2021/04/05 04:06:33;;;;;;;9.20;6.82;;;;;;;1.46;100.00;95829.44;5026646;28;20075;-55
2021/04/05 04:09:03;;;;;;;9.50;6.75;;;;;;;1.41;100.00;95823.69;4994035;28;20069;-49
2021/04/05 04:11:31;;;;;;;7.97;6.32;;;;;;;1.33;100.00;95823.41;5027579;28;20093;-54
2021/04/05 04:14:02;;;;;;;8.88;6.38;;;;;;;1.22;100.00;95825.91;5002559;28;20073;-54
2021/04/05 04:16:30;;;;;;;7.43;5.90;;;;;;;1.33;100.00;95816.44;5019879;28;20512;-51
2021/04/05 04:18:59;;;;;;;8.07;6.15;;;;;;;1.29;100.00;95814.16;4993654;28;20068;-51
2021/04/05 04:21:27;;;;;;;7.47;6.22;;;;;;;1.28;100.00;95809.91;5022972;28;20069;-53
2021/04/05 04:23:56;;;;;;;12.15;7.10;;;;;;;1.09;100.00;95812.91;4998507;28;20081;-54
2021/04/05 04:26:24;;;;;;;10.15;6.50;;;;;;;1.01;100.00;95807.41;5033464;28;20084;-52
2021/04/05 04:28:52;;;;;;;8.75;6.55;;;;;;;1.11;100.00;95798.88;5002288;28;20474;-56
2021/04/05 04:31:20;;;;;;;7.57;6.35;;;;;;;1.21;100.00;95787.91;5028141;28;20060;-51
2021/04/05 04:33:48;;;;;;;9.80;7.07;;;;;;;1.04;100.00;95789.84;5004530;28;20060;-50
2021/04/05 04:36:22;;;;;;;13.02;7.50;;;;;;;0.99;100.00;95778.94;5025788;28;20065;-53
2021/04/05 04:38:51;;;;;;;8.98;6.75;;;;;;;0.89;100.00;95777.88;5006399;28;20082;-50
2021/04/05 04:41:24;;;;;;;9.60;6.90;;;;;;;1.07;100.00;95776.66;5032234;28;20081;-56
2021/04/05 04:43:56;;;;;;;9.95;7.20;;;;;;;1.12;100.00;95764.19;4997954;28;20073;-51
2021/04/05 04:46:23;;;;;;;8.05;6.72;;;;;;;1.00;100.00;95759.00;5027746;28;20520;-55
2021/04/05 04:48:58;;;;;;;8.48;6.82;;;;;;;1.06;100.00;95758.59;4995928;28;20519;-56
2021/04/05 04:51:26;;;;;;;9.23;6.38;;;;;;;1.09;100.00;95769.59;5021627;28;20065;-56
2021/04/05 04:53:54;;;;;;;8.75;6.60;;;;;;;1.02;100.00;95757.13;5029108;28;20081;-51
2021/04/05 04:56:23;;;;;;;9.95;7.15;;;;;;;1.24;100.00;95756.50;5019297;28;20074;-54
2021/04/05 04:58:50;;;;;;;9.20;6.65;;;;;;;1.31;100.00;95753.41;5024014;28;20093;-56
2021/04/05 05:01:18;;;;;;;8.30;6.43;;;;;;;1.46;100.00;95753.25;5002427;28;20077;-53
2021/04/05 05:03:50;;;;;;;8.50;6.40;;;;;;;1.68;100.00;95748.22;5021654;28;20558;-54
2021/04/05 05:06:19;;;;;;;6.43;5.68;;;;;;;1.65;100.00;95756.22;5001913;28;20075;-53
2021/04/05 05:08:47;;;;;;;7.85;5.82;;;;;;;2.00;100.00;95742.53;5019751;28;20174;-51
2021/04/05 05:11:15;;;;;;;7.68;5.90;;;;;;;2.40;100.00;95750.03;5004695;28;20085;-55
2021/04/05 05:13:43;;;;;;;10.80;5.90;;;;;;;2.69;100.00;95745.31;5027948;28;20130;-52
2021/04/05 05:16:11;;;;;;;7.00;5.40;;;;;;;2.91;100.00;95747.13;5010381;28;20622;-53
2021/04/05 05:18:38;;;;;;;8.93;5.95;;;;;;;2.94;100.00;95744.28;5024106;28;20073;-53
2021/04/05 05:21:08;;;;;;;8.70;5.95;;;;;;;3.02;100.00;95742.75;5003771;28;20125;-54
2021/04/05 05:23:37;;;;;;;7.55;5.47;;;;;;;3.09;100.00;95745.72;5028640;28;20076;-54
2021/04/05 05:26:05;;;;;;;8.23;6.25;;;;;;;2.85;100.00;95746.63;5005147;28;20463;-54
2021/04/05 05:28:34;;;;;;;8.73;6.15;;;;;;;2.98;100.00;95748.31;5026889;28;20069;-50
2021/04/05 05:31:03;;;;;;;7.10;5.85;;;;;;;2.87;100.00;95740.50;4997880;28;20061;-51
2021/04/05 05:33:31;;;;;;;8.05;6.18;;;;;;;3.35;100.00;95741.13;5029440;28;20080;-51
2021/04/05 05:36:01;;;;;;;10.30;6.28;;;;;;;3.81;100.00;95732.31;5005592;28;20077;-52
2021/04/05 05:38:28;;;;;;;8.05;5.43;;;;;;;3.90;100.00;95729.00;5023895;28;20085;-52
2021/04/05 05:41:00;;;;;;;9.00;6.20;;;;;;;3.62;100.00;95719.91;5006135;28;20555;-48
2021/04/05 05:43:33;;;;;;;7.78;5.30;;;;;;;4.02;100.00;95712.34;5026135;28;20432;-50
2021/04/05 05:46:16;;;;;;;7.35;5.20;;;;;;;4.26;96.94;95706.13;5004976;28;20078;-48
2021/04/05 05:49:02;;;;;;;7.45;5.30;;;;;;;4.36;98.76;95707.03;5018498;28;20077;-50
2021/04/05 05:51:40;;;;;;;5.38;4.65;;;;;;;4.33;98.56;95702.06;4996787;28;23741;-50
2021/04/05 05:54:13;;;;;;;7.25;5.18;;;;;;;4.45;99.50;95685.41;5019913;28;20080;-51
2021/04/05 05:56:44;;;;;;;7.68;5.03;;;;;;;4.54;96.82;95689.03;4994225;28;20079;-48
2021/04/05 05:59:24;;;;;;;7.18;5.18;;;;;;;4.51;97.86;95684.91;5026225;28;20540;-47
2021/04/05 06:02:03;;;;;;;7.38;5.20;;;;;;;4.55;97.88;95687.25;4999193;28;20481;-50
2021/04/05 06:04:37;;;;;;;6.22;4.80;;;;;;;4.70;94.42;95689.41;5027151;28;20068;-46
2021/04/05 06:07:10;;;;;;;7.50;4.90;;;;;;;4.84;93.31;95684.84;4998744;28;20076;-48
2021/04/05 06:09:46;;;;;;;5.15;4.53;;;;;;;5.19;88.06;95684.47;5030596;28;20072;-50
2021/04/05 06:12:17;;;;;;;7.18;4.63;;;;;;;5.27;88.71;95681.22;5000482;28;20554;-51
2021/04/05 06:14:49;;;;;;;5.78;4.95;;;;;;;5.71;84.67;95680.81;5021654;28;20096;-45
2021/04/05 06:17:29;;;;;;;6.82;4.40;;;;;;;5.92;83.26;95666.81;4999936;28;20091;-51
2021/04/05 06:20:05;;;;;;;4.95;4.25;;;;;;;5.94;82.56;95673.56;5022030;28;20084;-49
2021/04/05 06:22:52;;;;;;;5.47;4.47;;;;;;;6.45;76.82;95663.00;4999914;28;20526;-49
2021/04/05 06:25:29;;;;;;;6.47;4.32;;;;;;;6.35;78.96;95650.72;5019551;28;20069;-49
2021/04/05 06:28:25;;;;;;;5.70;4.38;;;;;;;7.05;74.89;95640.81;4998199;28;20069;-50
2021/04/05 06:31:06;;;;;;;5.65;4.40;;;;;;;6.93;72.31;95635.91;5016254;28;20566;-48
2021/04/05 06:33:36;;;;;;;5.18;4.20;;;;;;;7.12;70.95;95635.81;4998980;28;20072;-50
2021/04/05 06:36:15;;;;;;;8.20;4.40;;;;;;;7.52;68.70;95630.25;5022319;28;20065;-47
2021/04/05 06:38:46;;;;;;;6.25;4.20;;;;;;;7.54;67.79;95617.00;4998473;28;20084;-48
2021/04/05 06:41:48;;;;;;;6.43;4.13;;;;;;;7.50;67.56;95624.34;5019942;28;20803;-49
2021/04/05 06:45:10;;;;;;;6.40;4.10;;;;;;;7.70;67.11;95614.56;4977292;28;20467;-52
2021/04/05 06:47:58;;;;;;;6.25;3.83;;;;;;;8.24;63.48;95610.16;5007423;28;20455;-46
2021/04/05 06:50:34;;;;;;;7.03;4.20;;;;;;;8.59;60.95;95589.28;4997832;28;20479;-48
2021/04/05 06:53:21;;;;;;;6.50;3.97;;;;;;;8.64;60.57;95595.72;5017101;28;20520;-48
2021/04/05 06:55:51;;;;;;;5.22;4.00;;;;;;;9.00;60.11;95595.59;4986435;28;20072;-48
2021/04/05 06:58:54;;;;;;;5.65;3.35;;;;;;;8.67;58.79;95597.19;5026387;28;20083;-49
2021/04/05 07:01:32;;;;;;;5.35;3.55;;;;;;;9.23;57.46;95586.19;5019448;28;20088;-47
2021/04/05 07:04:20;;;;;;;6.03;3.90;;;;;;;9.53;54.27;95584.00;5008654;28;20072;-50
2021/04/05 07:06:51;;;;;;;5.68;3.47;;;;;;;9.26;52.72;95575.38;5027274;28;20076;-48
2021/04/05 07:09:30;;;;;;;4.15;3.13;;;;;;;8.97;52.85;95585.41;4992699;28;20068;-50
2021/04/05 07:12:27;;;;;;;3.97;3.33;;;;;;;9.60;52.24;95577.13;5028681;28;20100;-48
2021/04/05 07:15:05;;;;;;;5.13;3.67;;;;;;;9.49;51.73;95578.22;4988722;28;20078;-51
2021/04/05 07:17:39;;;;;;;4.25;3.05;;;;;;;9.99;51.18;95566.00;5022281;28;20073;-51
2021/04/05 07:20:14;;;;;;;5.13;3.60;;;;;;;10.12;50.56;95560.28;4996198;28;21404;-45
2021/04/05 07:22:57;;;;;;;6.68;3.88;;;;;;;10.30;50.52;95553.06;5029535;28;20068;-51
2021/04/05 07:25:28;;;;;;;8.23;4.25;;;;;;;10.39;51.34;95540.69;4999723;28;20108;-49
2021/04/05 07:28:07;;;;;;;5.72;3.50;;;;;;;10.43;48.74;95544.66;5022106;28;20073;-48
2021/04/05 07:30:41;;;;;;;6.28;3.60;;;;;;;10.22;48.81;95539.84;5000862;28;20475;-48
2021/04/05 07:33:32;;;;;;;10.18;3.47;;;;;;;10.39;48.09;95530.13;5020083;28;20453;-47
2021/04/05 07:36:04;;;;;;;5.72;3.63;;;;;;;10.40;48.63;95527.34;5001801;28;20088;-48
2021/04/05 07:38:41;;;;;;;6.78;3.80;;;;;;;10.66;48.50;95528.94;5024310;28;20096;-51
2021/04/05 07:41:13;;;;;;;6.80;3.78;;;;;;;10.36;47.34;95528.69;4991989;28;20072;-50
2021/04/05 07:43:47;;;;;;;5.20;3.53;;;;;;;10.71;47.18;95510.00;5024975;28;20068;-52
2021/04/05 07:46:23;;;;;;;4.93;3.50;;;;;;;10.78;47.59;95516.25;5000408;28;20489;-52
2021/04/05 07:48:59;;;;;;;7.20;3.35;;;;;;;11.01;46.43;95496.06;5024278;28;20433;-51
2021/04/05 07:51:36;;;;;;;5.15;3.88;;;;;;;11.46;46.51;95496.31;4987033;28;20455;-46
2021/04/05 07:54:06;;;;;;;6.45;3.63;;;;;;;11.62;46.42;95489.13;5018878;28;20441;-53
2021/04/05 07:56:35;;;;;;;5.63;3.50;;;;;;;11.64;45.71;95475.78;5008406;28;20095;-49
2021/04/05 07:59:15;;;;;;;4.60;3.70;;;;;;;11.65;43.89;95480.03;5019088;28;20072;-50
2021/04/05 08:01:45;;;;;;;10.07;3.20;;;;;;;11.61;44.01;95478.75;5000556;28;20552;-52
2021/04/05 08:04:17;;;;;;;4.75;2.50;;;;;;;12.27;42.87;95463.25;5025947;28;20057;-49
2021/04/05 08:06:52;;;;;;;7.05;3.22;;;;;;;12.33;43.76;95458.06;4998870;28;20467;-54
2021/04/05 08:09:25;;;;;;;7.45;3.30;;;;;;;12.58;41.33;95471.03;5018542;28;20076;-48
2021/04/05 08:12:05;;;;;;;225.20;14.43;;;;;;;12.08;41.35;95438.16;5000356;28;22658;-47
2021/04/05 08:14:40;;;;;;;10.52;3.25;;;;;;;12.79;41.03;95455.25;5026343;28;20087;-47
2021/04/05 08:17:16;;;;;;;10.10;3.15;;;;;;;12.64;40.03;95466.84;4999355;28;24105;-49
2021/04/05 08:19:56;;;;;;;6.80;3.13;;;;;;;12.51;40.59;95470.13;5025800;28;20500;-53
2021/04/05 08:22:36;;;;;;;7.55;3.25;;;;;;;12.80;40.00;95441.03;4997848;28;20084;-52
2021/04/05 08:25:12;;;;;;;103.43;7.63;;;;;;;12.80;40.05;95450.78;5026163;28;20697;-55
2021/04/05 08:27:44;;;;;;;9.20;3.22;;;;;;;12.32;40.70;95463.53;5000175;28;20552;-50
2021/04/05 08:30:21;;;;;;;7.50;3.30;;;;;;;11.99;41.08;95447.97;5030676;28;20061;-47
2021/04/05 08:32:58;;;;;;;10.85;4.35;;;;;;;12.40;41.27;95447.59;5005478;28;20089;-49
2021/04/05 08:35:32;;;;;;;7.07;3.50;;;;;;;12.45;41.08;95457.59;5027670;28;20088;-50
2021/04/05 08:38:06;;;;;;;4.40;3.10;;;;;;;12.88;40.52;95445.41;5003968;28;20068;-48
2021/04/05 08:40:41;;;;;;;7.18;3.10;;;;;;;12.89;40.30;95436.44;5028930;28;20071;-51
2021/04/05 08:43:11;;;;;;;6.70;3.45;;;;;;;13.18;40.01;95438.25;5003850;28;20076;-50
2021/04/05 08:45:44;;;;;;;4.28;2.47;;;;;;;13.27;39.96;95437.16;5026588;28;20061;-50
2021/04/05 08:48:14;;;;;;;19.48;3.50;;;;;;;13.23;38.84;95422.63;5006908;28;20472;-50
2021/04/05 08:50:43;;;;;;;3.83;2.78;;;;;;;13.93;38.84;95410.50;5022026;28;20096;-52
2021/04/05 08:53:12;;;;;;;11.38;3.00;;;;;;;13.59;38.29;95423.63;5028210;28;20073;-47
2021/04/05 08:55:42;;;;;;;5.72;2.80;;;;;;;13.91;38.36;95427.63;5019203;28;20064;-52
2021/04/05 08:58:11;;;;;;;8.88;3.20;;;;;;;13.51;37.68;95430.69;5028272;28;20113;-51
2021/04/05 09:00:42;;;;;;;8.88;2.70;;;;;;;13.80;38.28;95415.69;4999677;28;20072;-52
2021/04/05 09:03:11;;;;;;;5.53;2.55;;;;;;;14.60;37.69;95411.81;5021676;28;20460;-49
2021/04/05 09:05:41;;;;;;;4.35;2.88;;;;;;;14.45;36.78;95403.97;5004524;28;20154;-51
2021/04/05 09:08:10;;;;;;;22.60;3.38;;;;;;;13.97;37.40;95400.31;5026023;28;20462;-47
2021/04/05 09:10:50;;;;;;;5.53;2.22;;;;;;;13.85;36.72;95338.28;4997481;28;20057;-49
2021/04/05 09:13:20;;;;;;;4.45;2.80;;;;;;;14.00;36.73;95400.78;5023031;28;20077;-51
2021/04/05 09:16:15;;;;;;;13.53;3.50;;;;;;;14.02;36.78;95389.97;5010653;28;20519;-51
2021/04/05 09:19:00;;;;;;;6.00;2.72;;;;;;;13.89;36.92;95390.69;5022756;28;20045;-47
2021/04/05 09:21:40;;;;;;;4.80;2.67;;;;;;;14.23;36.82;95389.13;4998863;28;20061;-53
2021/04/05 09:24:34;;;;;;;8.50;2.80;;;;;;;14.13;36.71;95393.94;5033402;28;20072;-48
2021/04/05 09:27:39;;;;;;;11.65;2.83;;;;;;;14.59;36.36;95372.22;5022174;28;20077;-46
2021/04/05 09:30:28;;;;;;;5.30;2.28;;;;;;;14.32;36.34;95384.50;4994463;28;20072;-50
2021/04/05 09:33:15;;;;;;;4.20;2.58;;;;;;;14.62;36.17;95369.16;5021912;28;20096;-50
2021/04/05 09:35:51;;;;;;;4.35;2.22;;;;;;;14.00;36.06;95390.19;5002209;28;20080;-48
2021/04/05 09:38:30;;;;;;;5.97;2.70;;;;;;;14.13;36.85;95356.81;5027349;28;20080;-53
2021/04/05 09:41:09;;;;;;;6.23;2.70;;;;;;;14.25;36.62;95321.63;4998396;28;20042;-48
2021/04/05 09:44:06;;;;;;;5.70;2.58;;;;;;;14.78;35.88;95329.03;5026194;28;20060;-51
2021/04/05 09:46:58;;;;;;;6.72;3.13;;;;;;;14.41;36.06;95332.91;4999977;28;20076;-52
2021/04/05 09:49:34;;;;;;;6.32;2.75;;;;;;;14.54;36.13;95324.25;5027140;28;20069;-48
2021/04/05 09:52:40;;;;;;;5.97;2.20;;;;;;;14.40;35.88;95332.09;4998077;28;20072;-48
2021/04/05 09:55:11;;;;;;;3.97;2.33;;;;;;;14.42;36.02;95319.47;5027670;28;21562;-54
2021/04/05 09:57:39;;;;;;;;;;;;;;;14.19;36.03;95310.97;4991377;28;20076;-49
2021/04/05 10:00:10;;;;;;;16.38;3.10;;;;;;;14.16;36.30;95304.22;5028596;28;19964;-48
2021/04/05 10:02:44;;;;;;;6.13;3.47;;;;;;;14.11;36.67;95301.34;5003894;28;20077;-48
2021/04/05 10:05:13;;;;;;;5.35;2.75;;;;;;;14.41;36.40;95315.16;5020620;28;20080;-51
2021/04/05 10:07:43;;;;;;;4.53;2.88;;;;;;;14.98;36.65;95318.50;5005448;28;20072;-50
2021/04/05 10:10:13;;;;;;;6.18;2.50;;;;;;;14.77;35.89;95298.22;5024374;28;20068;-48
2021/04/05 10:12:41;;;;;;;3.53;2.40;;;;;;;14.64;36.43;95304.28;4992488;28;20065;-49
2021/04/05 10:15:12;;;;;;;3.92;2.53;;;;;;;14.93;36.09;95303.19;5030117;28;20482;-47
2021/04/05 10:17:42;;;;;;;2.20;1.75;;;;;;;14.55;36.21;95281.59;5003876;28;20088;-50
2021/04/05 10:20:12;;;;;;;6.97;2.53;;;;;;;14.91;36.01;95291.13;5020131;28;20433;-49
2021/04/05 10:22:42;;;;;;;6.20;2.22;;;;;;;14.82;35.27;95276.38;5004320;28;20530;-48
2021/04/05 10:25:11;;;;;;;3.78;2.50;;;;;;;14.82;35.86;95274.53;5021194;28;20065;-50
2021/04/05 10:27:39;;;;;;;3.95;2.30;;;;;;;15.30;35.43;95268.31;5002377;28;20069;-48
2021/04/05 10:30:11;;;;;;;3.15;2.20;;;;;;;15.13;35.48;95262.56;5031074;28;20064;-48
2021/04/05 10:32:40;;;;;;;7.07;2.65;;;;;;;14.79;35.63;95253.69;4997251;28;20096;-50
2021/04/05 10:35:10;;;;;;;3.88;2.30;;;;;;;15.05;35.35;95260.91;5029552;28;21405;-49
2021/04/05 10:37:40;;;;;;;;;;;;;;;15.07;35.05;95247.44;4996131;28;20080;-51
2021/04/05 10:40:10;;;;;;;8.00;2.60;;;;;;;14.42;35.62;95255.81;5021851;28;19978;-52
2021/04/05 10:42:39;;;;;;;4.72;2.28;;;;;;;14.70;35.46;95270.84;4996536;28;20063;-48
2021/04/05 10:45:11;;;;;;;3.60;2.05;;;;;;;15.05;35.52;95222.94;5019213;28;20538;-48
2021/04/05 10:47:42;;;;;;;6.82;2.90;;;;;;;15.00;34.98;95230.66;5013197;28;20061;-48
2021/04/05 10:50:10;;;;;;;6.10;2.67;;;;;;;15.14;35.04;95227.00;5032080;28;20472;-48
2021/04/05 10:52:41;;;;;;;9.65;2.78;;;;;;;14.74;35.35;95234.13;5026294;28;20056;-49
2021/04/05 10:55:16;;;;;;;6.28;2.53;;;;;;;14.76;35.15;95214.28;4997579;28;20064;-49
2021/04/05 10:57:44;;;;;;;7.53;2.47;;;;;;;14.99;35.48;95218.44;5035134;28;20060;-47
2021/04/05 11:00:18;;;;;;;5.10;2.85;;;;;;;15.01;35.90;95219.88;4993860;28;20076;-49
2021/04/05 11:02:50;;;;;;;2.92;2.05;;;;;;;14.85;35.05;95210.44;5003682;28;20799;-50
2021/04/05 11:05:20;;;;;;;4.28;2.33;;;;;;;14.94;34.24;95195.16;4999082;28;20472;-51
2021/04/05 11:07:53;;;;;;;5.03;2.10;;;;;;;15.01;34.71;95176.59;5018509;28;20064;-50
2021/04/05 11:10:21;;;;;;;6.28;2.58;;;;;;;14.69;34.65;95192.25;4999031;28;20107;-50
2021/04/05 11:12:53;;;;;;;3.22;1.98;;;;;;;14.25;34.12;95186.41;5024206;28;20076;-51
2021/04/05 11:15:21;;;;;;;4.07;1.95;;;;;;;14.67;34.74;95168.56;4995837;28;20056;-51
2021/04/05 11:17:52;;;;;;;3.85;2.45;;;;;;;14.89;35.05;95179.00;5017640;28;20156;-53
2021/04/05 11:20:22;;;;;;;3.78;2.00;;;;;;;14.88;34.29;95172.06;5001694;28;20393;-50
2021/04/05 11:23:09;;;;;;;5.40;2.40;;;;;;;14.89;34.23;95174.50;5020176;28;21325;-51
2021/04/05 11:25:41;;;;;;;6.65;2.50;;;;;;;14.82;34.32;95175.53;5002665;28;20444;-56
2021/04/05 11:28:10;;;;;;;5.75;2.97;;;;;;;14.39;34.33;95151.97;5023910;28;20384;-52
2021/04/05 11:30:40;;;;;;;4.82;2.40;;;;;;;14.33;33.37;95116.44;4992115;28;20053;-49
2021/04/05 11:33:09;;;;;;;4.07;2.20;;;;;;;14.67;34.41;95154.50;5024495;28;20416;-48
2021/04/05 11:35:37;;;;;;;6.43;2.70;;;;;;;14.86;34.71;95142.25;5008407;28;20080;-48
2021/04/05 11:38:07;;;;;;;15.25;2.70;;;;;;;14.99;34.54;95126.31;5029155;28;20129;-54
2021/04/05 11:40:36;;;;;;;5.18;2.40;;;;;;;15.19;34.13;95131.63;5002725;28;20042;-52
2021/04/05 11:43:13;;;;;;;5.45;2.78;;;;;;;16.02;34.05;95128.38;5006084;28;20530;-52
2021/04/05 11:45:43;;;;;;;4.88;2.88;;;;;;;16.19;32.69;95123.41;5005159;28;20061;-50
2021/04/05 11:48:20;;;;;;;4.82;2.65;;;;;;;15.90;33.41;95120.25;5033320;28;20096;-53
2021/04/05 11:50:48;;;;;;;4.63;2.72;;;;;;;15.54;32.86;95123.41;4998645;28;20082;-48
2021/04/05 11:53:22;;;;;;;3.63;1.98;;;;;;;15.30;33.48;95108.94;5028076;28;20464;-47
2021/04/05 11:56:00;;;;;;;3.00;2.38;;;;;;;15.37;33.87;95117.72;5001273;28;20072;-50
2021/04/05 11:58:31;;;;;;;3.55;2.35;;;;;;;15.37;33.88;95096.47;5024540;28;20076;-50